createdAt,value
2024-04-22T00:00:20.395Z,4.27
2024-04-22T00:02:47.146Z,4.25
2024-04-22T00:05:15.731Z,4.27
2024-04-22T00:07:42.461Z,4.33
2024-04-22T00:10:09.232Z,4.39
2024-04-22T00:12:36.001Z,4.41
2024-04-22T00:15:02.574Z,4.36
2024-04-22T00:17:29.467Z,4.34
2024-04-22T00:19:56.395Z,4.32
2024-04-22T00:22:22.987Z,4.29
2024-04-22T00:24:49.601Z,4.31
2024-04-22T00:27:16.219Z,4.33
2024-04-22T00:29:42.948Z,4.33
2024-04-22T00:32:09.579Z,4.33
2024-04-22T00:34:36.328Z,4.34
2024-04-22T00:37:03.152Z,4.37
2024-04-22T00:39:29.740Z,4.38
2024-04-22T00:41:56.265Z,4.32
2024-04-22T00:44:22.876Z,4.32
2024-04-22T00:46:49.805Z,4.38
2024-04-22T00:49:16.658Z,4.36
2024-04-22T00:51:44.475Z,4.38
2024-04-22T00:54:12.385Z,4.40
2024-04-22T00:56:40.345Z,4.41
2024-04-22T00:59:07.840Z,4.39
2024-04-22T01:01:34.703Z,4.43
2024-04-22T01:04:03.208Z,4.45
2024-04-22T01:06:30.242Z,4.45
2024-04-22T01:08:56.845Z,4.44
2024-04-22T01:11:23.614Z,4.39
2024-04-22T01:13:50.456Z,4.33
2024-04-22T01:16:17.075Z,4.32
2024-04-22T01:18:43.856Z,4.32
2024-04-22T01:21:10.443Z,4.33
2024-04-22T01:23:37.574Z,4.32
2024-04-22T01:26:06.836Z,4.32
2024-04-22T01:28:33.443Z,4.34
2024-04-22T01:31:00.146Z,4.34
2024-04-22T01:33:26.764Z,4.35
2024-04-22T01:35:53.465Z,4.33
2024-04-22T01:38:19.994Z,4.38
2024-04-22T01:40:46.764Z,4.39
2024-04-22T01:43:13.407Z,4.33
2024-04-22T01:45:40.121Z,4.33
2024-04-22T01:48:07.059Z,4.26
2024-04-22T01:50:33.767Z,4.24
2024-04-22T01:53:00.377Z,4.23
2024-04-22T01:55:27.183Z,4.24
2024-04-22T01:57:53.860Z,4.27
2024-04-22T02:00:20.612Z,4.32
2024-04-22T02:02:47.170Z,4.30
2024-04-22T02:05:13.863Z,4.27
2024-04-22T02:07:40.591Z,4.24
2024-04-22T02:10:17.529Z,4.21
2024-04-22T02:12:49.935Z,4.23
2024-04-22T02:15:16.602Z,4.28
2024-04-22T02:17:43.241Z,4.30
2024-04-22T02:20:10.116Z,4.32
2024-04-22T02:22:37.003Z,4.28
2024-04-22T02:25:03.814Z,4.25
2024-04-22T02:27:30.346Z,4.24
2024-04-22T02:29:56.874Z,4.22
2024-04-22T02:32:23.593Z,4.17
2024-04-22T02:34:51.862Z,4.09
2024-04-22T02:37:18.561Z,4.08
2024-04-22T02:39:45.186Z,4.05
2024-04-22T02:42:12.067Z,4.02
2024-04-22T02:44:38.654Z,4.00
2024-04-22T02:47:05.851Z,4.00
2024-04-22T02:49:32.696Z,3.96
2024-04-22T02:51:59.430Z,3.96
2024-04-22T02:54:29.548Z,3.96
2024-04-22T02:56:56.564Z,3.91
2024-04-22T02:59:23.232Z,3.88
2024-04-22T03:01:51.133Z,3.87
2024-04-22T03:04:17.824Z,3.85
2024-04-22T03:06:44.567Z,3.85
2024-04-22T03:09:11.390Z,3.86
2024-04-22T03:11:38.217Z,3.82
2024-04-22T03:14:04.781Z,3.79
2024-04-22T03:16:31.370Z,3.81
2024-04-22T03:18:57.984Z,3.82
2024-04-22T03:21:24.733Z,3.78
2024-04-22T03:23:51.271Z,3.78
2024-04-22T03:26:18.025Z,3.81
2024-04-22T03:28:44.587Z,3.83
2024-04-22T03:31:11.328Z,3.78
2024-04-22T03:33:38.753Z,3.73
2024-04-22T03:36:05.948Z,3.68
2024-04-22T03:38:32.637Z,3.64
2024-04-22T03:40:59.433Z,3.55
2024-04-22T03:43:25.995Z,3.48
2024-04-22T03:46:11.234Z,3.43
2024-04-22T03:48:56.566Z,3.39
2024-04-22T03:51:23.603Z,3.34
2024-04-22T03:53:50.240Z,3.29
2024-04-22T03:56:17.058Z,3.26
2024-04-22T03:58:43.859Z,3.26
2024-04-22T04:01:10.573Z,3.24
2024-04-22T04:03:37.461Z,3.21
2024-04-22T04:06:04.343Z,3.18
2024-04-22T04:08:30.971Z,3.15
2024-04-22T04:11:02.063Z,3.14
2024-04-22T04:13:28.924Z,3.14
2024-04-22T04:15:55.502Z,3.10
2024-04-22T04:18:22.255Z,3.08
2024-04-22T04:20:48.875Z,3.01
2024-04-22T04:23:15.680Z,2.99
2024-04-22T04:25:42.360Z,2.99
2024-04-22T04:28:09.059Z,2.96
2024-04-22T04:30:35.735Z,2.97
2024-04-22T04:33:02.660Z,2.99
2024-04-22T04:35:29.325Z,2.93
2024-04-22T04:37:56.094Z,2.94
2024-04-22T04:40:22.679Z,2.93
2024-04-22T04:42:49.425Z,2.90
2024-04-22T04:45:16.009Z,2.86
2024-04-22T04:47:42.715Z,2.84
2024-04-22T04:50:09.404Z,2.83
2024-04-22T04:52:36.228Z,2.82
2024-04-22T04:55:02.806Z,2.85
2024-04-22T04:57:29.397Z,2.85
2024-04-22T04:59:56.063Z,2.91
2024-04-22T05:02:23.117Z,2.96
2024-04-22T05:04:50.786Z,3.05
2024-04-22T05:07:17.462Z,3.08
2024-04-22T05:09:44.249Z,3.09
2024-04-22T05:12:11.150Z,3.15
2024-04-22T05:14:37.726Z,3.25
2024-04-22T05:17:04.443Z,3.36
2024-04-22T05:19:31.046Z,3.43
2024-04-22T05:21:57.674Z,3.50
2024-04-22T05:24:26.413Z,3.53
2024-04-22T05:26:54.444Z,3.60
2024-04-22T05:29:21.126Z,3.63
2024-04-22T05:31:47.709Z,3.65
2024-04-22T05:34:33.137Z,3.71
2024-04-22T05:36:59.754Z,3.75
2024-04-22T05:39:26.465Z,3.79
2024-04-22T05:41:53.003Z,3.82
2024-04-22T05:44:19.734Z,3.84
2024-04-22T05:46:46.426Z,3.93
2024-04-22T05:49:13.074Z,3.83
2024-04-22T05:51:39.858Z,3.64
2024-04-22T05:54:09.938Z,3.53
2024-04-22T05:56:39.592Z,3.41
2024-04-22T05:59:08.110Z,3.32
2024-04-22T06:01:34.777Z,3.27
2024-04-22T06:04:01.371Z,3.30
2024-04-22T06:06:27.964Z,3.37
2024-04-22T06:08:54.543Z,3.46
2024-04-22T06:11:21.251Z,3.50
2024-04-22T06:13:47.903Z,3.61
2024-04-22T06:16:14.599Z,3.72
2024-04-22T06:18:41.178Z,3.75
2024-04-22T06:21:07.828Z,3.87
2024-04-22T06:23:34.463Z,3.94
2024-04-22T06:26:07.628Z,4.00
2024-04-22T06:28:34.560Z,3.98
2024-04-22T06:31:01.158Z,3.92
2024-04-22T06:33:29.005Z,3.94
2024-04-22T06:35:56.068Z,4.00
2024-04-22T06:38:23.311Z,4.01
2024-04-22T06:40:49.934Z,4.03
2024-04-22T06:43:17.883Z,4.05
2024-04-22T06:45:45.206Z,4.19
2024-04-22T06:48:11.970Z,4.29
2024-04-22T06:50:38.651Z,4.36
2024-04-22T06:53:05.227Z,4.49
2024-04-22T06:55:31.845Z,4.58
2024-04-22T06:57:58.447Z,4.64
2024-04-22T07:00:25.055Z,4.73
2024-04-22T07:02:52.770Z,4.93
2024-04-22T07:05:19.698Z,5.10
2024-04-22T07:07:46.370Z,5.18
2024-04-22T07:10:13.183Z,5.24
2024-04-22T07:12:42.022Z,5.33
2024-04-22T07:15:08.948Z,5.37
2024-04-22T07:17:36.664Z,5.38
2024-04-22T07:20:06.264Z,5.37
2024-04-22T07:22:36.726Z,5.43
2024-04-22T07:25:04.865Z,5.44
2024-04-22T07:27:32.966Z,5.48
2024-04-22T07:30:00.711Z,5.39
2024-04-22T07:32:28.531Z,5.35
2024-04-22T07:34:55.441Z,5.55
2024-04-22T07:37:34.587Z,5.61
2024-04-22T07:40:19.342Z,5.65
2024-04-22T07:42:49.120Z,5.93
2024-04-22T07:45:17.994Z,5.99
2024-04-22T07:47:45.118Z,6.10
2024-04-22T07:50:12.191Z,6.07
2024-04-22T07:52:41.024Z,6.15
2024-04-22T07:55:08.200Z,6.17
2024-04-22T07:57:39.566Z,6.20
2024-04-22T08:00:06.973Z,6.18
2024-04-22T08:02:35.516Z,6.20
2024-04-22T08:05:02.463Z,6.19
2024-04-22T08:07:29.991Z,6.20
2024-04-22T08:09:56.599Z,6.23
2024-04-22T08:12:23.234Z,6.19
2024-04-22T08:14:49.752Z,6.14
2024-04-22T08:17:16.559Z,6.07
2024-04-22T08:19:43.390Z,6.27
2024-04-22T08:22:10.001Z,6.35
2024-04-22T08:24:36.901Z,6.48
2024-04-22T08:27:03.649Z,6.70
2024-04-22T08:29:30.220Z,7.20
2024-04-22T08:31:56.765Z,7.53
2024-04-22T08:34:23.342Z,7.86
2024-04-22T08:36:49.934Z,7.97
2024-04-22T08:39:16.498Z,8.02
2024-04-22T08:41:43.080Z,7.76
2024-04-22T08:44:09.896Z,7.58
2024-04-22T08:46:36.596Z,7.50
2024-04-22T08:49:03.568Z,7.76
2024-04-22T08:51:31.708Z,8.24
2024-04-22T08:53:59.367Z,8.76
2024-04-22T08:56:27.404Z,9.23
2024-04-22T08:58:54.021Z,9.39
2024-04-22T09:01:20.934Z,9.66
2024-04-22T09:03:47.631Z,9.90
2024-04-22T09:06:14.525Z,9.94
2024-04-22T09:08:45.127Z,10.03
2024-04-22T09:11:46.396Z,9.62
2024-04-22T09:14:06.130Z,9.00
2024-04-22T09:16:37.345Z,8.78
2024-04-22T09:19:04.444Z,9.09
2024-04-22T09:21:36.193Z,8.77
2024-04-22T09:24:04.094Z,8.85
2024-04-22T09:26:30.821Z,9.05
2024-04-22T09:29:01.957Z,8.65
2024-04-22T09:31:30.804Z,8.48
2024-04-22T09:33:58.662Z,8.33
2024-04-22T09:36:27.554Z,8.36
2024-04-22T09:38:55.188Z,8.32
2024-04-22T09:41:22.132Z,8.24
2024-04-22T09:43:55.599Z,8.35
2024-04-22T09:46:27.622Z,8.43
2024-04-22T09:48:56.146Z,9.09
2024-04-22T09:51:23.971Z,9.37
2024-04-22T09:53:51.668Z,9.31
2024-04-22T09:56:30.050Z,9.65
2024-04-22T09:58:58.418Z,9.77
2024-04-22T10:01:26.063Z,9.92
2024-04-22T10:03:53.550Z,9.84
2024-04-22T10:06:24.310Z,9.38
2024-04-22T10:08:51.654Z,8.92
2024-04-22T10:11:19.041Z,9.01
2024-04-22T10:13:46.053Z,9.65
2024-04-22T10:16:16.238Z,9.91
2024-04-22T10:18:49.992Z,10.30
2024-04-22T10:21:16.902Z,10.06
2024-04-22T10:23:45.155Z,9.73
2024-04-22T10:26:22.032Z,9.40
2024-04-22T10:28:49.242Z,9.20
2024-04-22T10:31:23.441Z,9.44
2024-04-22T10:33:51.105Z,9.37
2024-04-22T10:36:18.198Z,9.48
2024-04-22T10:38:44.875Z,9.46
2024-04-22T10:41:11.479Z,9.28
2024-04-22T10:43:39.547Z,9.12
2024-04-22T10:46:06.594Z,8.88
2024-04-22T10:48:33.361Z,8.55
2024-04-22T10:50:59.988Z,8.45
2024-04-22T10:53:26.535Z,8.45
2024-04-22T10:55:53.268Z,8.67
2024-04-22T10:58:20.110Z,9.33
2024-04-22T11:00:51.172Z,9.86
2024-04-22T11:03:18.718Z,9.92
2024-04-22T11:05:48.287Z,9.75
2024-04-22T11:08:16.825Z,9.71
2024-04-22T11:10:44.172Z,9.53
2024-04-22T11:13:11.530Z,9.38
2024-04-22T11:15:38.253Z,9.30
2024-04-22T11:18:09.069Z,9.29
2024-04-22T11:20:37.146Z,9.27
2024-04-22T11:23:04.987Z,9.22
2024-04-22T11:25:31.616Z,9.14
2024-04-22T11:27:58.374Z,9.21
2024-04-22T11:30:25.099Z,9.28
2024-04-22T11:32:51.776Z,9.27
2024-04-22T11:35:18.573Z,9.47
2024-04-22T11:37:45.753Z,9.80
2024-04-22T11:40:12.459Z,10.77
2024-04-22T11:42:39.273Z,11.47
2024-04-22T11:45:07.074Z,11.14
2024-04-22T11:47:34.330Z,10.49
2024-04-22T11:50:01.017Z,10.02
2024-04-22T11:52:27.605Z,9.72
2024-04-22T11:54:54.333Z,9.61
2024-04-22T11:57:20.905Z,9.58
2024-04-22T11:59:47.519Z,9.48
2024-04-22T12:02:17.971Z,9.47
2024-04-22T12:04:45.652Z,9.53
2024-04-22T12:07:12.405Z,9.56
2024-04-22T12:09:39.330Z,9.62
2024-04-22T12:12:06.472Z,9.77
2024-04-22T12:14:33.030Z,10.55
2024-04-22T12:16:59.685Z,11.09
2024-04-22T12:19:26.991Z,11.22
2024-04-22T12:21:53.604Z,11.49
2024-04-22T12:24:20.140Z,11.65
2024-04-22T12:26:46.677Z,12.01
2024-04-22T12:29:13.218Z,12.22
2024-04-22T12:31:39.996Z,11.79
2024-04-22T12:34:12.491Z,11.22
2024-04-22T12:36:40.857Z,11.39
2024-04-22T12:39:07.568Z,11.66
2024-04-22T12:41:34.249Z,11.63
2024-04-22T12:44:03.931Z,11.84
2024-04-22T12:46:41.898Z,11.92
2024-04-22T12:49:27.348Z,12.44
2024-04-22T12:51:53.961Z,12.65
2024-04-22T12:54:20.639Z,12.18
2024-04-22T12:56:47.220Z,11.91
2024-04-22T12:59:13.855Z,11.49
2024-04-22T13:01:40.688Z,11.42
2024-04-22T13:04:07.440Z,11.14
2024-04-22T13:06:34.008Z,11.55
2024-04-22T13:09:02.351Z,12.04
2024-04-22T13:11:29.702Z,12.54
2024-04-22T13:13:57.256Z,12.86
2024-04-22T13:16:23.935Z,12.69
2024-04-22T13:18:50.578Z,12.49
2024-04-22T13:21:17.367Z,12.40
2024-04-22T13:23:43.962Z,12.10
2024-04-22T13:26:10.959Z,11.54
2024-04-22T13:28:37.600Z,11.14
2024-04-22T13:31:05.545Z,10.92
2024-04-22T13:33:32.376Z,10.90
2024-04-22T13:35:59.079Z,10.89
2024-04-22T13:38:25.606Z,10.79
2024-04-22T13:40:52.473Z,10.66
2024-04-22T13:43:19.212Z,10.57
2024-04-22T13:45:45.773Z,10.49
2024-04-22T13:48:12.426Z,10.46
2024-04-22T13:50:39.236Z,10.45
2024-04-22T13:53:19.327Z,10.40
2024-04-22T13:55:50.491Z,10.34
2024-04-22T13:58:17.149Z,10.33
2024-04-22T14:00:44.076Z,10.32
2024-04-22T14:03:10.762Z,10.34
2024-04-22T14:05:37.445Z,10.37
2024-04-22T14:08:04.238Z,10.48
2024-04-22T14:10:30.938Z,10.57
2024-04-22T14:12:57.946Z,10.58
2024-04-22T14:15:40.186Z,10.60
2024-04-22T14:18:11.203Z,10.63
2024-04-22T14:20:37.836Z,10.67
2024-04-22T14:23:05.446Z,10.82
2024-04-22T14:25:34.670Z,11.00
2024-04-22T14:28:01.979Z,11.29
2024-04-22T14:30:28.572Z,11.27
2024-04-22T14:32:55.391Z,11.27
2024-04-22T14:35:22.088Z,11.05
2024-04-22T14:37:48.885Z,11.21
2024-04-22T14:40:15.747Z,11.73
2024-04-22T14:42:42.373Z,12.09
2024-04-22T14:45:09.250Z,12.42
2024-04-22T14:47:36.081Z,12.10
2024-04-22T14:50:02.748Z,11.76
2024-04-22T14:52:29.508Z,11.15
2024-04-22T14:54:56.126Z,10.84
2024-04-22T14:57:22.834Z,10.35
2024-04-22T14:59:49.405Z,10.07
2024-04-22T15:02:17.628Z,9.99
2024-04-22T15:04:44.593Z,9.68
2024-04-22T15:07:11.240Z,9.34
2024-04-22T15:09:43.017Z,9.09
2024-04-22T15:12:10.103Z,8.92
2024-04-22T15:14:36.757Z,8.82
2024-04-22T15:17:03.557Z,8.79
2024-04-22T15:19:30.489Z,8.72
2024-04-22T15:21:57.233Z,8.69
2024-04-22T15:24:23.969Z,8.81
2024-04-22T15:26:50.695Z,8.86
2024-04-22T15:29:17.418Z,8.94
2024-04-22T15:31:44.084Z,8.89
2024-04-22T15:34:10.679Z,8.90
2024-04-22T15:36:37.324Z,9.01
2024-04-22T15:39:05.336Z,9.16
2024-04-22T15:41:31.876Z,9.23
2024-04-22T15:44:00.709Z,9.20
2024-04-22T15:46:27.306Z,9.17
2024-04-22T15:48:54.133Z,9.13
2024-04-22T15:51:20.682Z,9.14
2024-04-22T15:53:47.328Z,9.04
2024-04-22T15:56:15.617Z,9.07
2024-04-22T15:58:42.958Z,9.20
2024-04-22T16:01:09.670Z,9.30
2024-04-22T16:03:36.619Z,9.37
2024-04-22T16:06:03.407Z,9.40
2024-04-22T16:08:32.162Z,9.45
2024-04-22T16:10:59.268Z,9.44
2024-04-22T16:13:26.001Z,9.50
2024-04-22T16:15:52.721Z,9.46
2024-04-22T16:18:20.015Z,9.40
2024-04-22T16:20:56.561Z,9.32
2024-04-22T16:23:32.597Z,9.25
2024-04-22T16:26:00.248Z,9.18
2024-04-22T16:28:26.938Z,9.10
2024-04-22T16:30:53.498Z,8.99
2024-04-22T16:33:20.096Z,8.87
2024-04-22T16:35:46.677Z,8.77
2024-04-22T16:38:13.190Z,8.73
2024-04-22T16:40:40.048Z,8.70
2024-04-22T16:43:08.845Z,8.69
2024-04-22T16:45:35.586Z,8.69
2024-04-22T16:48:02.312Z,8.55
2024-04-22T16:50:28.946Z,8.43
2024-04-22T16:52:55.622Z,8.40
2024-04-22T16:55:22.359Z,8.38
2024-04-22T16:57:48.927Z,8.31
2024-04-22T17:00:16.289Z,8.31
2024-04-22T17:02:42.917Z,8.30
2024-04-22T17:05:09.574Z,8.28
2024-04-22T17:07:36.807Z,8.32
2024-04-22T17:10:07.650Z,8.32
2024-04-22T17:12:34.242Z,8.38
2024-04-22T17:15:01.563Z,8.35
2024-04-22T17:17:28.249Z,8.28
2024-04-22T17:19:55.057Z,8.21
2024-04-22T17:22:21.647Z,8.19
2024-04-22T17:24:51.867Z,8.10
2024-04-22T17:27:21.327Z,8.09
2024-04-22T17:29:48.577Z,8.05
2024-04-22T17:32:15.806Z,7.98
2024-04-22T17:34:42.477Z,7.94
2024-04-22T17:37:12.307Z,7.93
2024-04-22T17:39:41.574Z,7.95
2024-04-22T17:42:09.438Z,7.95
2024-04-22T17:44:36.367Z,7.96
2024-04-22T17:47:03.730Z,7.94
2024-04-22T17:49:30.616Z,7.89
2024-04-22T17:51:57.177Z,7.86
2024-04-22T17:54:24.258Z,7.87
2024-04-22T17:56:59.370Z,7.90
2024-04-22T17:59:28.888Z,7.94
2024-04-22T18:01:55.478Z,7.98
2024-04-22T18:04:22.298Z,7.96
2024-04-22T18:06:48.899Z,7.98
2024-04-22T18:09:15.649Z,7.95
2024-04-22T18:11:42.941Z,7.89
2024-04-22T18:14:10.142Z,7.84
2024-04-22T18:16:39.016Z,7.78
2024-04-22T18:19:05.659Z,7.71
2024-04-22T18:21:32.260Z,7.68
2024-04-22T18:23:58.802Z,7.66
2024-04-22T18:26:25.369Z,7.60
2024-04-22T18:28:52.030Z,7.54
2024-04-22T18:31:21.651Z,7.52
2024-04-22T18:33:48.385Z,7.50
2024-04-22T18:36:14.965Z,7.46
2024-04-22T18:38:41.556Z,7.45
2024-04-22T18:41:11.107Z,7.44
2024-04-22T18:43:38.316Z,7.40
2024-04-22T18:46:05.312Z,7.38
2024-04-22T18:48:31.922Z,7.34
2024-04-22T18:50:59.830Z,7.31
2024-04-22T18:53:26.692Z,7.26
2024-04-22T18:55:53.541Z,7.24
2024-04-22T18:58:20.605Z,7.17
2024-04-22T19:00:50.737Z,7.12
2024-04-22T19:03:18.808Z,7.02
2024-04-22T19:05:45.410Z,6.95
2024-04-22T19:08:12.229Z,6.87
2024-04-22T19:10:40.765Z,6.78
2024-04-22T19:13:07.756Z,6.75
2024-04-22T19:15:36.431Z,6.77
2024-04-22T19:18:03.494Z,6.71
2024-04-22T19:20:30.100Z,6.67
2024-04-22T19:22:57.049Z,6.62
2024-04-22T19:25:23.875Z,6.63
2024-04-22T19:27:54.265Z,6.64
2024-04-22T19:30:20.869Z,6.65
2024-04-22T19:32:47.708Z,6.69
2024-04-22T19:35:15.986Z,6.65
2024-04-22T19:37:42.822Z,6.67
2024-04-22T19:40:09.540Z,6.70
2024-04-22T19:42:36.200Z,6.70
2024-04-22T19:45:03.679Z,6.71
2024-04-22T19:47:30.656Z,6.76
2024-04-22T19:49:57.364Z,6.77
2024-04-22T19:52:24.117Z,6.76
2024-04-22T19:54:52.898Z,6.78
2024-04-22T19:57:22.330Z,6.74
2024-04-22T19:59:49.912Z,6.70
2024-04-22T20:02:16.509Z,6.68
2024-04-22T20:04:43.188Z,6.66
2024-04-22T20:07:09.901Z,6.63
2024-04-22T20:09:36.600Z,6.62
2024-04-22T20:12:03.379Z,6.67
2024-04-22T20:14:30.012Z,6.65
2024-04-22T20:16:56.676Z,6.64
2024-04-22T20:19:25.447Z,6.60
2024-04-22T20:21:52.316Z,6.59
2024-04-22T20:24:19.000Z,6.63
2024-04-22T20:26:45.594Z,6.60
2024-04-22T20:29:12.145Z,6.57
2024-04-22T20:31:39.056Z,6.52
2024-04-22T20:34:06.061Z,6.47
2024-04-22T20:36:32.770Z,6.35
2024-04-22T20:38:59.507Z,6.21
2024-04-22T20:41:26.088Z,6.14
2024-04-22T20:43:55.453Z,6.10
2024-04-22T20:46:22.580Z,6.01
2024-04-22T20:48:49.147Z,5.95
2024-04-22T20:51:15.726Z,5.91
2024-04-22T20:53:42.280Z,5.92
2024-04-22T20:56:08.891Z,5.92
2024-04-22T20:58:36.084Z,5.89
2024-04-22T21:01:07.420Z,5.84
2024-04-22T21:03:34.307Z,5.83
2024-04-22T21:06:06.054Z,5.76
2024-04-22T21:08:33.482Z,5.72
2024-04-22T21:11:04.082Z,5.63
2024-04-22T21:13:45.009Z,5.56
2024-04-22T21:16:12.228Z,5.58
2024-04-22T21:18:39.768Z,5.59
2024-04-22T21:21:06.537Z,5.61
2024-04-22T21:23:33.539Z,5.57
2024-04-22T21:26:00.387Z,5.53
2024-04-22T21:28:27.133Z,5.52
2024-04-22T21:30:53.892Z,5.50
2024-04-22T21:33:35.332Z,5.47
2024-04-22T21:36:07.147Z,5.45
2024-04-22T21:38:33.717Z,5.42
2024-04-22T21:41:00.274Z,5.41
2024-04-22T21:43:27.277Z,5.36
2024-04-22T21:45:54.076Z,5.29
2024-04-22T21:48:24.028Z,5.22
2024-04-22T21:50:54.169Z,5.22
2024-04-22T21:53:20.873Z,5.17
2024-04-22T21:55:51.654Z,5.12
2024-04-22T21:58:56.337Z,5.12
2024-04-22T22:02:00.675Z,5.09
2024-04-22T22:05:04.793Z,5.08
2024-04-22T22:07:31.314Z,5.08
2024-04-22T22:09:57.984Z,5.08
2024-04-22T22:12:25.016Z,5.05
2024-04-22T22:14:52.146Z,5.01
2024-04-22T22:17:18.975Z,4.94
2024-04-22T22:19:47.742Z,4.93
2024-04-22T22:22:14.521Z,4.86
2024-04-22T22:24:42.926Z,4.80
2024-04-22T22:27:11.486Z,4.74
2024-04-22T22:29:38.480Z,4.69
2024-04-22T22:32:05.467Z,4.61
2024-04-22T22:34:32.520Z,4.55
2024-04-22T22:37:04.456Z,4.49
2024-04-22T22:39:32.149Z,4.41
2024-04-22T22:41:59.079Z,4.40
2024-04-22T22:44:26.237Z,4.40
2024-04-22T22:47:03.276Z,4.41
2024-04-22T22:49:30.395Z,4.44
2024-04-22T22:51:57.321Z,4.44
2024-04-22T22:54:23.914Z,4.40
2024-04-22T22:56:57.785Z,4.33
2024-04-22T22:59:24.696Z,4.23
2024-04-22T23:01:52.258Z,4.14
2024-04-22T23:04:18.909Z,4.07
2024-04-22T23:06:45.733Z,4.01
2024-04-22T23:09:12.251Z,3.99
2024-04-22T23:11:38.869Z,3.98
2024-04-22T23:14:05.471Z,3.96
2024-04-22T23:16:32.202Z,3.92
2024-04-22T23:18:58.884Z,3.90
2024-04-22T23:21:25.505Z,3.89
2024-04-22T23:23:52.052Z,3.87
2024-04-22T23:26:18.631Z,3.91
2024-04-22T23:28:45.203Z,3.94
2024-04-22T23:31:11.940Z,3.91
2024-04-22T23:33:38.469Z,3.84
2024-04-22T23:36:05.234Z,3.77
2024-04-22T23:38:31.924Z,3.77
2024-04-22T23:40:58.529Z,3.78
2024-04-22T23:43:25.159Z,3.79
2024-04-22T23:45:51.911Z,3.76
2024-04-22T23:48:18.610Z,3.76
2024-04-22T23:50:45.229Z,3.71
2024-04-22T23:53:11.962Z,3.70
2024-04-22T23:55:38.586Z,3.67
2024-04-22T23:58:05.293Z,3.61
